Aérodrome :
LOGIN :

S'inscrire | Disclaimer

   EN    FR    IT 

 










Légende :    VFR   VFR Marginal   IFR   IFR Intensif   IFR Très Intensif
Visi : 
Plafond : 
>= 8 km
>= 3000ft
5 à 8 km
1000 à 3000 ft
1500m à 5 km
500 à 1000 ft
800 à 1500m
200 à 500 ft
< 800m
< 200 ft
Symboles :   Orages  Brouillard  Fortes neiges  Fortes précipitations  Vent > 20 kt
SIGMETs :   Divers  Orages  Givrage  Turbulence  Onde Orograph.  Cendres Volcan.






- Altitude de l'aérodrome : 280 ft
- Code IATA : FAE


EKVG - Vagar

DERNIER METAR :
  • 141251Z 36014KT 9999 VCSH FEW020TCU SCT030 02/M01 Q1016

METARs EXPIRÉS :
  • 141229Z 34015KT 290V350 5000 -SHSN FEW020TCU BKN030 02/M01 Q1016 RMK WIND SKEID 35023G37KT
  • 141221Z 33015KT 8000 -SHRASN FEW020TCU SCT030 03/M01 Q1015
  • 141150Z 34013KT 310V020 9999 FEW020TCU SCT035 03/M02 Q1015
  • 141120Z 33012KT 9999 FEW020TCU SCT035 03/M03 Q1015
  • 141050Z AUTO 34010KT 310V010 9999 BKN032/// 03/M03 Q1015

TAF TAF EKVG
Valide du 14 à 12h jusqu'au 14 à 21h UTC


141124Z 1412/1421 35013KT 9999 BKN025
TEMPO 1412/1421 35018G32KT 4000 SHRA SCT020CB



MET'MAP, la Météo Aéronautique d'un coup d'oeil ! - Copyright ORBIFLY Décembre 2007 - Disclaimer

ORBIFLY MET'MAP TEAM :

Programmation & Développement : Alexandra Zaïnal
Conception & Développement : Baudouin d'Aumeries
Co-Programmation & Développement : Marc-Olivier Méhu
Soutien technique & logistique : Manuel Goepfert

Contact : metmap@orbifly.com




SOURCES & CREDITS :

   NOAA